createdAt,value
2023-05-05T00:00:36.634Z,57.22
2023-05-05T00:01:36.589Z,57.32
2023-05-05T00:02:36.787Z,57.22
2023-05-05T00:03:36.645Z,57.42
2023-05-05T00:04:36.571Z,57.32
2023-05-05T00:05:36.551Z,57.73
2023-05-05T00:06:36.552Z,57.53
2023-05-05T00:07:36.542Z,58.13
2023-05-05T00:08:36.552Z,58.34
2023-05-05T00:09:36.544Z,58.23
2023-05-05T00:10:36.499Z,58.13
2023-05-05T00:11:36.499Z,57.73
2023-05-05T00:12:36.524Z,57.83
2023-05-05T00:13:36.461Z,57.73
2023-05-05T00:14:36.495Z,58.03
2023-05-05T00:15:36.452Z,58.13
2023-05-05T00:16:36.501Z,58.34
2023-05-05T00:17:36.432Z,58.36
2023-05-05T00:18:36.435Z,58.47
2023-05-05T00:19:36.417Z,58.26
2023-05-05T00:20:36.488Z,58.06
2023-05-05T00:21:36.411Z,58.76
2023-05-05T00:22:36.387Z,58.87
2023-05-05T00:23:36.367Z,59.17
2023-05-05T00:24:36.361Z,59.07
2023-05-05T00:25:36.367Z,59.27
2023-05-05T00:26:36.390Z,58.97
2023-05-05T00:27:37.415Z,58.76
2023-05-05T00:28:36.324Z,58.87
2023-05-05T00:29:36.313Z,58.59
2023-05-05T00:30:36.302Z,58.76
2023-05-05T00:31:36.349Z,59.10
2023-05-05T00:32:36.364Z,59.68
2023-05-05T00:33:36.253Z,59.50
2023-05-05T00:34:36.259Z,59.41
2023-05-05T00:35:36.262Z,59.30
2023-05-05T00:36:36.228Z,58.90
2023-05-05T00:37:36.229Z,59.30
2023-05-05T00:38:36.247Z,59.30
2023-05-05T00:39:36.181Z,59.30
2023-05-05T00:40:36.195Z,60.11
2023-05-05T00:41:36.167Z,60.01
2023-05-05T00:42:36.200Z,60.01
2023-05-05T00:43:36.146Z,59.70
2023-05-05T00:44:36.269Z,59.50
2023-05-05T00:45:36.126Z,59.70
2023-05-05T00:46:36.178Z,59.81
2023-05-05T00:47:36.134Z,59.70
2023-05-05T00:48:36.115Z,59.61
2023-05-05T00:49:36.155Z,59.50
2023-05-05T00:50:36.091Z,59.61
2023-05-05T00:51:36.074Z,59.61
2023-05-05T00:52:36.087Z,59.61
2023-05-05T00:53:36.037Z,59.70
2023-05-05T00:54:36.065Z,59.81
2023-05-05T00:55:36.038Z,59.91
2023-05-05T00:56:36.014Z,60.31
2023-05-05T00:57:36.000Z,60.31
2023-05-05T00:58:36.010Z,60.59
2023-05-05T00:59:35.993Z,60.82
2023-05-05T01:00:35.972Z,60.62
2023-05-05T01:01:36.050Z,60.72
2023-05-05T01:02:36.744Z,60.21
2023-05-05T01:03:36.053Z,60.11
2023-05-05T01:04:35.948Z,60.01
2023-05-05T01:05:35.925Z,60.11
2023-05-05T01:06:35.918Z,60.31
2023-05-05T01:07:35.908Z,60.21
2023-05-05T01:08:35.887Z,60.52
2023-05-05T01:09:35.882Z,61.13
2023-05-05T01:10:35.870Z,61.02
2023-05-05T01:11:35.866Z,61.23
2023-05-05T01:12:35.913Z,61.23
2023-05-05T01:13:35.836Z,61.02
2023-05-05T01:14:35.840Z,61.23
2023-05-05T01:15:35.806Z,61.23
2023-05-05T01:16:35.926Z,61.33
2023-05-05T01:17:35.828Z,61.43
2023-05-05T01:18:35.817Z,61.13
2023-05-05T01:19:35.789Z,60.82
2023-05-05T01:20:35.756Z,60.93
2023-05-05T01:21:35.758Z,60.72
2023-05-05T01:22:35.726Z,61.02
2023-05-05T01:23:35.820Z,60.93
2023-05-05T01:24:35.728Z,60.21
2023-05-05T01:25:35.721Z,60.52
2023-05-05T01:26:35.697Z,60.01
2023-05-05T01:27:35.692Z,59.91
2023-05-05T01:28:35.650Z,59.70
2023-05-05T01:29:35.670Z,59.61
2023-05-05T06:00:44.871Z,61.43
2023-05-05T06:01:45.830Z,61.43
2023-05-05T06:02:45.903Z,61.43
2023-05-05T06:03:45.955Z,61.53
2023-05-05T06:04:45.798Z,61.33
2023-05-05T06:05:45.818Z,61.23
2023-05-05T06:06:45.786Z,61.43
2023-05-05T06:07:45.765Z,61.43
2023-05-05T06:08:45.729Z,61.43
2023-05-05T06:09:45.749Z,61.71
2023-05-05T06:10:45.739Z,61.60
2023-05-05T06:11:45.743Z,61.40
2023-05-05T06:12:45.764Z,61.40
2023-05-05T06:13:45.696Z,61.60
2023-05-05T06:14:45.668Z,61.51
2023-05-05T06:15:45.712Z,61.60
2023-05-05T06:16:45.660Z,61.80
2023-05-05T06:17:45.655Z,61.80
2023-05-05T06:18:45.672Z,61.60
2023-05-05T06:19:45.627Z,61.91
2023-05-05T06:20:45.618Z,61.80
2023-05-05T06:21:45.606Z,61.80
2023-05-05T06:22:45.609Z,61.80
2023-05-05T06:23:45.583Z,61.58
2023-05-05T06:24:45.579Z,61.68
2023-05-05T06:25:45.555Z,61.37
2023-05-05T06:26:45.550Z,61.37
2023-05-05T06:27:45.549Z,61.17
2023-05-05T06:28:45.522Z,61.17
2023-05-05T06:29:45.522Z,61.17
2023-05-05T06:30:45.518Z,61.27
2023-05-05T06:31:45.553Z,61.27
2023-05-05T06:32:45.550Z,61.27
2023-05-05T06:33:45.488Z,61.27
2023-05-05T06:34:45.463Z,61.44
2023-05-05T06:35:45.462Z,61.55
2023-05-05T06:36:45.495Z,61.35
2023-05-05T06:37:45.451Z,61.35
2023-05-05T06:38:45.419Z,61.35
2023-05-05T06:39:45.419Z,61.35
2023-05-05T06:40:45.397Z,61.35
2023-05-05T06:41:45.396Z,61.24
2023-05-05T06:42:45.394Z,61.14
2023-05-05T06:43:45.380Z,60.03
2023-05-05T06:44:45.352Z,59.59
2023-05-05T06:45:45.348Z,59.59
2023-05-05T06:46:45.341Z,59.80
2023-05-05T06:47:45.350Z,59.29
2023-05-05T06:48:45.332Z,59.49
2023-05-05T06:49:45.320Z,59.19
2023-05-05T06:50:45.287Z,59.19
2023-05-05T06:51:45.294Z,59.09
2023-05-05T06:52:45.256Z,59.16
2023-05-05T06:53:45.278Z,59.16
2023-05-05T06:54:45.280Z,59.16
2023-05-05T06:55:45.277Z,59.27
2023-05-05T06:56:45.319Z,59.16
2023-05-05T06:57:45.245Z,59.16
2023-05-05T06:58:45.211Z,59.16
2023-05-05T06:59:45.204Z,59.16
2023-05-05T07:00:45.211Z,59.16
2023-05-05T07:01:45.208Z,59.16
2023-05-05T07:02:45.173Z,59.16
2023-05-05T07:03:45.282Z,59.27
2023-05-05T07:04:45.136Z,59.06
2023-05-05T07:05:45.145Z,59.16
2023-05-05T07:06:45.124Z,59.23
2023-05-05T07:07:45.129Z,59.34
2023-05-05T07:08:45.102Z,59.44
2023-05-05T07:09:45.115Z,59.54
2023-05-05T07:10:45.073Z,59.14
2023-05-05T07:11:45.076Z,59.34
2023-05-05T07:12:45.107Z,59.44
2023-05-05T07:13:45.081Z,59.34
2023-05-05T07:14:45.026Z,59.34
2023-05-05T07:15:45.039Z,59.54
2023-05-05T07:16:45.016Z,59.44
2023-05-05T07:17:45.031Z,59.44
2023-05-05T07:18:45.014Z,59.41
2023-05-05T07:19:45.033Z,59.41
2023-05-05T07:20:45.001Z,59.41
2023-05-05T07:22:44.947Z,59.61
2023-05-05T07:23:44.954Z,59.61
2023-05-05T07:24:44.969Z,59.61
2023-05-05T07:25:44.933Z,59.61
2023-05-05T07:26:44.909Z,59.78
2023-05-05T07:27:44.898Z,59.78
2023-05-05T07:28:44.897Z,59.78
2023-05-05T07:29:44.878Z,59.78
2023-05-05T07:30:44.873Z,59.89
2023-05-05T07:31:44.904Z,59.89
2023-05-05T07:32:44.868Z,59.78
2023-05-05T07:33:44.889Z,59.76
2023-05-05T07:34:44.813Z,59.86
2023-05-05T07:35:44.817Z,59.76
2023-05-05T07:36:44.818Z,59.96
2023-05-05T07:37:44.818Z,59.96
2023-05-05T07:38:44.781Z,60.06
2023-05-05T07:39:44.780Z,60.36
2023-05-05T07:40:44.741Z,60.36
2023-05-05T07:41:44.768Z,60.44
2023-05-05T07:42:44.762Z,60.33
2023-05-05T07:43:44.862Z,60.44
2023-05-05T07:44:44.723Z,60.64
2023-05-05T07:45:44.737Z,60.84
2023-05-05T07:46:44.690Z,60.64
2023-05-05T07:47:44.724Z,61.04
2023-05-05T07:48:44.727Z,61.01
2023-05-05T07:49:44.701Z,60.91
2023-05-05T07:50:44.650Z,60.81
2023-05-05T07:51:44.638Z,60.71
2023-05-05T07:52:50.007Z,61.11
2023-05-05T07:53:44.624Z,61.21
2023-05-05T07:54:44.650Z,60.91
2023-05-05T07:55:44.587Z,61.08
2023-05-05T07:56:44.617Z,61.39
2023-05-05T07:57:44.574Z,61.18
2023-05-05T07:58:44.592Z,60.98
2023-05-05T07:59:44.570Z,60.98
2023-05-05T08:00:44.638Z,60.88
2023-05-05T08:01:44.581Z,60.88
2023-05-05T08:02:44.610Z,61.08
2023-05-05T08:03:44.599Z,61.25
2023-05-05T08:04:44.642Z,61.66
2023-05-05T08:05:44.521Z,61.36
2023-05-05T08:06:44.481Z,61.56
2023-05-05T08:07:44.465Z,61.25
2023-05-05T08:08:44.455Z,61.16
2023-05-05T08:09:44.441Z,61.36
2023-05-05T08:10:44.455Z,61.23
2023-05-05T08:11:44.453Z,61.33
2023-05-05T08:12:44.443Z,61.23
2023-05-05T08:13:44.393Z,61.23
2023-05-05T08:14:44.418Z,61.23
2023-05-05T08:15:44.412Z,61.23
2023-05-05T08:16:44.421Z,61.33
2023-05-05T08:17:44.386Z,61.33
2023-05-05T08:18:44.355Z,61.13
2023-05-05T08:19:44.347Z,61.33
2023-05-05T08:20:44.335Z,61.33
2023-05-05T08:21:44.299Z,61.53
2023-05-05T08:22:44.376Z,61.73
2023-05-05T08:23:44.316Z,61.60
2023-05-05T08:24:44.314Z,61.80
2023-05-05T08:25:44.286Z,62.21
2023-05-05T08:26:44.275Z,62.21
2023-05-05T08:27:44.253Z,62.01
2023-05-05T08:28:44.266Z,61.90
2023-05-05T08:29:44.221Z,62.10
2023-05-05T08:30:44.234Z,62.10
2023-05-05T08:31:44.272Z,61.50
2023-05-05T08:32:44.245Z,61.80
2023-05-05T08:33:44.181Z,61.70
2023-05-05T08:34:44.224Z,61.77
2023-05-05T08:35:44.167Z,61.87
2023-05-05T08:36:44.193Z,61.98
2023-05-05T08:37:44.149Z,61.98
2023-05-05T08:38:44.153Z,61.98
2023-05-05T08:39:44.164Z,62.18
2023-05-05T08:40:44.181Z,62.18
2023-05-05T08:41:44.111Z,62.05
2023-05-05T08:42:44.106Z,62.15
2023-05-05T08:43:44.086Z,62.15
2023-05-05T08:44:44.078Z,62.35
2023-05-05T08:45:44.062Z,62.35
2023-05-05T08:46:44.132Z,61.74
2023-05-05T08:47:44.058Z,62.35
2023-05-05T08:48:44.043Z,62.24
2023-05-05T08:49:44.014Z,62.35
2023-05-05T08:50:44.014Z,62.12
2023-05-05T08:51:44.013Z,61.91
2023-05-05T08:52:44.706Z,61.82
2023-05-05T08:53:43.964Z,61.91
2023-05-05T08:54:43.984Z,61.71
2023-05-05T08:55:43.956Z,61.71
2023-05-05T08:56:43.969Z,61.61
2023-05-05T08:57:43.925Z,61.61
2023-05-05T08:58:43.940Z,61.61
2023-05-05T08:59:43.895Z,61.41
2023-05-05T09:00:43.923Z,61.71
2023-05-05T09:01:43.881Z,61.71
2023-05-05T09:02:44.034Z,61.99
2023-05-05T09:03:43.862Z,61.79
2023-05-05T09:04:43.895Z,61.88
2023-05-05T09:05:43.840Z,61.69
2023-05-05T09:06:43.856Z,61.29
2023-05-05T09:07:43.820Z,61.18
2023-05-05T09:08:43.835Z,61.58
2023-05-05T09:09:43.798Z,61.49
2023-05-05T09:10:43.827Z,61.76
2023-05-05T09:11:43.791Z,61.96
2023-05-05T09:12:43.831Z,61.96
2023-05-05T09:13:43.785Z,61.66
2023-05-05T09:14:43.772Z,61.55
2023-05-05T09:15:43.730Z,61.25
2023-05-05T09:16:43.783Z,61.25
2023-05-05T09:17:43.805Z,61.46
2023-05-05T09:18:43.715Z,61.35
2023-05-05T09:19:43.687Z,61.72
2023-05-05T09:20:43.706Z,61.72
2023-05-05T09:21:43.685Z,61.72
2023-05-05T09:22:43.692Z,61.43
2023-05-05T09:23:43.659Z,61.33
2023-05-05T09:24:43.659Z,61.33
2023-05-05T09:25:43.646Z,61.33
2023-05-05T09:26:43.635Z,61.22
2023-05-05T09:27:43.654Z,61.40
2023-05-05T09:28:43.629Z,61.40
2023-05-05T09:29:43.586Z,61.80
2023-05-05T09:30:43.652Z,61.90
2023-05-05T09:31:43.567Z,61.30
2023-05-05T09:32:43.592Z,61.30
2023-05-05T09:33:43.586Z,61.10
2023-05-05T09:34:43.560Z,61.00
2023-05-05T09:35:43.525Z,61.10
2023-05-05T09:36:43.544Z,60.97
2023-05-05T09:37:43.508Z,60.66
2023-05-05T09:38:43.514Z,60.57
2023-05-05T09:39:43.518Z,60.27
2023-05-05T09:40:43.506Z,60.36
2023-05-05T09:41:43.471Z,60.47
2023-05-05T09:42:43.481Z,60.27
2023-05-05T09:43:43.430Z,60.36
2023-05-05T09:44:43.444Z,60.36
2023-05-05T09:45:43.462Z,60.66
2023-05-05T09:46:43.503Z,60.16
2023-05-05T09:47:43.421Z,59.77
2023-05-05T09:48:43.400Z,59.23
2023-05-05T09:49:43.382Z,59.53
2023-05-05T09:50:43.397Z,59.53
2023-05-05T09:51:43.369Z,59.44
2023-05-05T09:52:43.375Z,59.53
2023-05-05T09:53:43.345Z,59.33
2023-05-05T09:54:43.349Z,59.13
2023-05-05T09:55:43.321Z,59.53
2023-05-05T09:56:43.325Z,59.33
2023-05-05T09:57:43.282Z,59.31
2023-05-05T09:58:43.349Z,59.20
2023-05-05T09:59:43.258Z,58.81
2023-05-05T10:00:43.261Z,58.70
2023-05-05T10:01:43.375Z,58.50
2023-05-05T10:02:43.291Z,58.70
2023-05-05T10:03:43.216Z,58.68
2023-05-05T10:04:43.283Z,58.78
2023-05-05T10:05:43.206Z,57.98
2023-05-05T10:06:43.200Z,57.78
2023-05-05T10:07:43.247Z,57.98
2023-05-05T10:08:43.192Z,57.87
2023-05-05T10:09:43.182Z,57.68
2023-05-05T10:10:43.153Z,57.85
2023-05-05T10:11:43.154Z,57.65
2023-05-05T10:12:43.196Z,56.95
2023-05-05T10:13:43.152Z,56.45
2023-05-05T10:14:43.121Z,55.74
2023-05-05T10:15:43.126Z,55.85
2023-05-05T10:16:43.144Z,55.22
2023-05-05T10:17:50.967Z,55.02
2023-05-05T10:18:43.092Z,54.62
2023-05-05T10:19:43.120Z,54.02
2023-05-05T10:20:43.041Z,51.82
2023-05-05T10:21:43.043Z,50.99
2023-05-05T10:22:43.031Z,51.39
2023-05-05T10:23:43.005Z,51.29
2023-05-05T10:24:43.054Z,51.59
2023-05-05T10:25:42.993Z,51.69
2023-05-05T10:26:43.004Z,51.37
2023-05-05T10:27:42.971Z,51.27
2023-05-05T10:28:42.969Z,51.17
2023-05-05T10:29:42.952Z,50.87
2023-05-05T10:30:42.993Z,51.17
2023-05-05T10:31:42.965Z,51.34
2023-05-05T10:33:42.942Z,51.15
2023-05-05T10:34:42.947Z,50.95
2023-05-05T10:35:42.884Z,50.45
2023-05-05T10:36:42.900Z,50.62
2023-05-05T10:37:42.852Z,50.82
2023-05-05T10:38:42.876Z,51.92
2023-05-05T10:39:42.846Z,52.12
2023-05-05T10:40:42.867Z,50.79
2023-05-05T10:41:42.833Z,50.70
2023-05-05T10:42:42.839Z,50.79
2023-05-05T10:43:42.809Z,50.70
2023-05-05T10:44:42.806Z,50.20
2023-05-05T10:45:42.902Z,50.10
2023-05-05T10:46:42.899Z,50.10
2023-05-05T10:47:42.805Z,50.00
2023-05-05T10:48:42.855Z,50.27
2023-05-05T10:49:42.729Z,49.27
2023-05-05T10:50:42.754Z,49.27
2023-05-05T10:51:42.714Z,49.08
2023-05-05T10:52:42.737Z,48.97
2023-05-05T10:53:42.737Z,49.57
2023-05-05T10:54:42.748Z,48.97
2023-05-05T10:55:42.675Z,48.97
2023-05-05T10:56:42.697Z,48.46
2023-05-05T10:57:42.735Z,47.36
2023-05-05T10:58:58.398Z,47.26
2023-05-05T10:59:42.659Z,46.76
2023-05-05T11:00:42.672Z,46.86
2023-05-05T11:01:42.626Z,46.26
2023-05-05T11:02:42.645Z,46.06
2023-05-05T11:03:42.621Z,44.87
2023-05-05T11:04:42.596Z,44.37
2023-05-05T11:05:42.578Z,44.45
2023-05-05T11:06:42.595Z,44.35
2023-05-05T11:07:42.534Z,44.45
2023-05-05T11:08:42.576Z,45.04
2023-05-05T11:09:42.535Z,44.94
2023-05-05T11:10:42.555Z,44.92
2023-05-05T11:11:42.516Z,43.43
2023-05-05T11:12:42.560Z,43.03
2023-05-05T11:13:42.494Z,43.03
2023-05-05T11:14:42.485Z,43.23
2023-05-05T11:15:42.482Z,42.33
2023-05-05T11:16:42.589Z,41.93
2023-05-05T11:17:42.462Z,42.13
2023-05-05T11:18:42.442Z,40.72
2023-05-05T11:19:42.421Z,41.12
2023-05-05T11:20:42.423Z,41.12
2023-05-05T11:21:42.406Z,40.22
2023-05-05T11:22:42.431Z,40.42
2023-05-05T11:23:42.396Z,40.42
2023-05-05T11:24:42.390Z,40.42
2023-05-05T11:25:42.375Z,40.22
2023-05-05T11:26:42.405Z,40.60
2023-05-05T11:27:42.341Z,40.70
2023-05-05T11:28:42.356Z,40.40
2023-05-05T11:29:42.317Z,40.30
2023-05-05T11:30:42.375Z,40.00
2023-05-05T11:31:42.340Z,38.41
2023-05-05T11:32:42.359Z,38.81
2023-05-05T11:33:42.275Z,38.11
2023-05-05T11:34:42.327Z,36.32
2023-05-05T11:35:42.257Z,35.92
2023-05-05T11:36:42.253Z,35.82
2023-05-05T11:37:42.241Z,35.82
2023-05-05T11:38:42.264Z,34.81
2023-05-05T11:39:42.221Z,36.21
2023-05-05T11:40:42.274Z,35.80
2023-05-05T11:41:42.183Z,35.71
2023-05-05T11:42:42.198Z,35.91
2023-05-05T11:43:42.170Z,35.59
2023-05-05T11:44:42.180Z,35.89
2023-05-05T11:45:42.149Z,36.58
2023-05-05T11:46:42.300Z,36.17
2023-05-05T11:47:42.138Z,36.47
2023-05-05T11:48:42.137Z,36.27
2023-05-05T11:49:42.111Z,35.75
2023-05-05T11:50:42.117Z,35.46
2023-05-05T11:51:42.104Z,34.86
2023-05-05T11:52:42.119Z,34.66
2023-05-05T11:53:42.071Z,35.26
2023-05-05T11:54:42.065Z,34.96
2023-05-05T11:55:42.042Z,35.54
2023-05-05T11:56:42.048Z,35.24
2023-05-05T11:57:42.014Z,35.34
2023-05-05T11:58:42.026Z,34.74
2023-05-05T11:59:41.995Z,34.45
2023-05-05T12:00:42.008Z,33.95
2023-05-05T12:01:41.987Z,34.25
2023-05-05T12:02:42.113Z,34.84
2023-05-05T12:03:42.147Z,34.15
2023-05-05T12:04:42.016Z,34.74
2023-05-05T12:05:41.946Z,34.74
2023-05-05T12:06:41.925Z,35.34
2023-05-05T12:07:41.925Z,35.14
2023-05-05T12:08:41.934Z,35.74
2023-05-05T12:09:41.895Z,35.24
2023-05-05T12:10:41.897Z,35.04
2023-05-05T12:11:41.870Z,35.04
2023-05-05T12:12:41.866Z,34.84
2023-05-05T12:13:41.871Z,34.83
2023-05-05T12:14:41.865Z,33.44
2023-05-05T12:15:41.846Z,34.33
2023-05-05T12:16:41.954Z,34.31
2023-05-05T12:17:41.885Z,34.22
2023-05-05T12:18:41.799Z,33.80
2023-05-05T12:19:41.851Z,33.31
2023-05-05T12:20:41.771Z,33.40
2023-05-05T12:21:41.771Z,33.50
2023-05-05T12:22:41.756Z,33.90
2023-05-05T12:23:41.751Z,33.90
2023-05-05T12:24:41.737Z,33.78
2023-05-05T12:25:41.761Z,33.89
2023-05-05T12:26:41.718Z,33.98
2023-05-05T12:27:41.716Z,33.78
2023-05-05T12:28:41.701Z,33.09
2023-05-05T12:29:41.701Z,32.79
2023-05-05T12:30:41.791Z,33.39
2023-05-05T12:31:41.781Z,32.50
2023-05-05T12:32:41.695Z,32.40
2023-05-05T12:33:41.650Z,32.78
2023-05-05T12:34:41.631Z,32.58
2023-05-05T12:35:41.643Z,32.18
2023-05-05T12:36:41.615Z,32.18
2023-05-05T12:37:41.663Z,31.68
2023-05-05T12:38:41.584Z,31.48
2023-05-05T12:39:41.627Z,31.97
2023-05-05T12:40:41.568Z,31.38
2023-05-05T12:41:41.573Z,31.26
2023-05-05T12:42:41.566Z,31.08
2023-05-05T12:43:41.554Z,31.97
2023-05-05T12:44:41.523Z,31.08
2023-05-05T12:45:41.557Z,30.79
2023-05-05T12:46:41.500Z,30.67
2023-05-05T12:47:41.569Z,30.08
2023-05-05T12:48:41.537Z,30.18
2023-05-05T12:49:41.477Z,30.37
2023-05-05T12:50:41.475Z,30.18
2023-05-05T12:51:41.461Z,30.18
2023-05-05T12:52:41.430Z,30.36
2023-05-05T12:53:41.441Z,30.65
2023-05-05T12:54:41.440Z,30.65
2023-05-05T12:55:41.435Z,30.46
2023-05-05T12:56:41.411Z,30.85
2023-05-05T12:57:41.402Z,31.15
2023-05-05T12:58:41.389Z,30.26
2023-05-05T12:59:41.403Z,30.26
2023-05-05T13:00:41.402Z,30.76
2023-05-05T13:01:41.410Z,30.65
2023-05-05T13:02:41.432Z,31.04
2023-05-05T13:03:41.357Z,30.74
2023-05-05T13:04:41.320Z,31.04
2023-05-05T13:05:41.316Z,31.13
2023-05-05T13:06:41.315Z,31.04
2023-05-05T13:07:41.405Z,31.23
2023-05-05T13:08:41.271Z,30.82
2023-05-05T13:09:41.282Z,30.04
2023-05-05T13:10:41.251Z,29.64
2023-05-05T13:11:41.250Z,29.54
2023-05-05T13:12:41.286Z,30.21
2023-05-05T13:13:41.239Z,29.52
2023-05-05T13:14:41.215Z,29.92
2023-05-05T13:15:41.271Z,30.02
2023-05-05T13:16:41.188Z,30.21
2023-05-05T13:17:41.226Z,30.04
2023-05-05T13:18:41.192Z,30.43
2023-05-05T13:19:41.181Z,29.93
2023-05-05T13:20:41.179Z,30.13
2023-05-05T13:21:41.153Z,30.63
2023-05-05T13:22:41.127Z,30.52
2023-05-05T13:23:41.125Z,30.63
2023-05-05T13:24:51.473Z,30.91
2023-05-05T13:25:41.125Z,30.91
2023-05-05T13:26:41.083Z,30.61
2023-05-05T13:27:41.099Z,30.81
2023-05-05T13:28:41.083Z,30.60
2023-05-05T13:29:41.083Z,30.69
2023-05-05T13:30:41.064Z,30.20
2023-05-05T13:31:41.148Z,30.50
2023-05-05T13:32:41.070Z,30.00
2023-05-05T13:33:41.020Z,29.21
2023-05-05T13:34:41.028Z,29.39
2023-05-05T13:35:41.042Z,29.60
2023-05-05T13:36:41.002Z,28.80
2023-05-05T13:37:41.000Z,28.21
2023-05-05T13:38:40.962Z,28.51
2023-05-05T13:39:40.961Z,28.52
2023-05-05T13:40:40.951Z,28.02
2023-05-05T13:41:40.979Z,27.73
2023-05-05T13:42:40.929Z,28.23
2023-05-05T13:43:40.933Z,28.42
2023-05-05T13:44:40.891Z,28.33
2023-05-05T13:45:42.001Z,28.52
2023-05-05T13:46:40.882Z,28.62
2023-05-05T13:47:41.026Z,28.62
2023-05-05T13:48:40.868Z,28.64
2023-05-05T13:49:40.864Z,29.24
2023-05-05T13:50:40.831Z,29.44
2023-05-05T13:51:40.863Z,29.24
2023-05-05T13:52:40.821Z,29.23
2023-05-05T13:53:40.880Z,29.03
2023-05-05T13:54:40.820Z,29.33
2023-05-05T13:55:40.817Z,29.03
2023-05-05T13:56:40.792Z,28.93
2023-05-05T13:57:40.771Z,29.03
2023-05-05T13:58:40.754Z,29.23
2023-05-05T13:59:40.809Z,29.13
2023-05-05T14:00:40.844Z,29.52
2023-05-05T14:01:40.769Z,29.52
2023-05-05T14:02:40.743Z,29.33
2023-05-05T14:03:40.743Z,28.64
2023-05-05T14:04:40.709Z,28.83
2023-05-05T14:05:40.693Z,28.93
2023-05-05T14:06:40.689Z,28.64
2023-05-05T14:07:40.695Z,28.82
2023-05-05T14:08:40.649Z,28.33
2023-05-05T14:09:40.638Z,28.23
2023-05-05T14:10:40.688Z,28.62
2023-05-05T14:11:40.658Z,28.92
2023-05-05T14:12:40.634Z,28.72
2023-05-05T14:13:40.632Z,28.82
2023-05-05T14:14:40.571Z,28.72
2023-05-05T14:15:40.598Z,28.82
2023-05-05T14:16:40.643Z,28.12
2023-05-05T14:17:40.658Z,28.62
2023-05-05T14:18:40.563Z,28.62
2023-05-05T14:19:40.559Z,28.72
2023-05-05T14:20:40.515Z,28.82
2023-05-05T14:21:40.532Z,29.11
2023-05-05T14:22:40.504Z,28.82
2023-05-05T14:23:40.551Z,29.23
2023-05-05T14:24:40.494Z,29.13
2023-05-05T14:25:40.478Z,29.23
2023-05-05T14:26:40.478Z,29.13
2023-05-05T14:27:40.479Z,29.74
2023-05-05T14:28:40.454Z,29.83
2023-05-05T14:29:40.504Z,29.83
2023-05-05T14:30:40.429Z,29.93
2023-05-05T14:31:40.491Z,29.85
2023-05-05T14:32:40.454Z,29.95
2023-05-05T14:33:40.414Z,30.05
2023-05-05T14:34:40.367Z,29.85
2023-05-05T14:35:40.394Z,30.15
2023-05-05T14:36:40.384Z,30.15
2023-05-05T14:37:40.382Z,30.24
2023-05-05T14:38:40.400Z,30.44
2023-05-05T14:39:40.350Z,30.34
2023-05-05T14:40:40.305Z,30.76
2023-05-05T14:41:40.326Z,30.85
2023-05-05T14:42:40.328Z,31.15
2023-05-05T14:43:40.302Z,31.15
2023-05-05T14:44:40.479Z,31.45
2023-05-05T14:45:40.293Z,31.56
2023-05-05T14:46:40.251Z,31.76
2023-05-05T14:47:40.318Z,32.17
2023-05-05T14:48:40.254Z,32.17
2023-05-05T14:49:40.258Z,32.39
2023-05-05T14:50:40.201Z,32.68
2023-05-05T14:51:40.205Z,32.70
2023-05-05T14:52:40.224Z,33.00
2023-05-05T14:53:40.207Z,33.00
2023-05-05T14:54:40.214Z,33.19
2023-05-05T14:55:40.191Z,33.09
2023-05-05T14:56:40.139Z,32.89
2023-05-05T14:57:40.151Z,33.01
2023-05-05T14:58:40.172Z,33.21
2023-05-05T14:59:40.166Z,33.40
2023-05-05T15:00:40.159Z,33.61
2023-05-05T15:01:40.154Z,33.70
2023-05-05T15:02:40.341Z,33.70
2023-05-05T15:03:40.147Z,33.92
2023-05-05T15:04:40.067Z,34.12
2023-05-05T15:05:40.090Z,34.13
2023-05-05T15:06:40.062Z,34.23
2023-05-05T15:07:40.101Z,34.43
2023-05-05T15:08:40.012Z,34.53
2023-05-05T15:09:40.044Z,34.73
2023-05-05T15:10:40.019Z,34.94
2023-05-05T15:11:40.016Z,35.14
2023-05-05T15:12:40.074Z,35.04
2023-05-05T15:13:39.981Z,35.24
2023-05-05T15:14:39.966Z,35.36
2023-05-05T15:15:39.994Z,35.46
2023-05-05T15:16:40.137Z,35.55
2023-05-05T15:17:39.960Z,35.75
2023-05-05T15:18:39.951Z,35.75
2023-05-05T15:19:39.912Z,35.87
2023-05-05T15:20:39.892Z,35.97
2023-05-05T15:21:39.890Z,36.07
2023-05-05T15:22:39.875Z,36.27
2023-05-05T15:23:39.897Z,36.49
2023-05-05T15:24:39.875Z,36.49
2023-05-05T15:25:39.847Z,36.29
2023-05-05T15:26:39.815Z,36.49
2023-05-05T15:27:39.827Z,38.59
2023-05-05T15:28:39.819Z,42.67
2023-05-05T15:29:39.858Z,52.24
2023-05-05T15:30:39.812Z,49.58
2023-05-05T15:31:39.797Z,50.52
2023-05-05T15:32:39.765Z,53.04
2023-05-05T15:33:39.775Z,51.70
2023-05-05T15:34:39.747Z,52.99
2023-05-05T15:35:39.740Z,50.65
2023-05-05T15:36:39.778Z,49.37
2023-05-05T15:37:39.716Z,51.89
2023-05-05T15:38:39.698Z,51.42
2023-05-05T15:39:39.714Z,50.44
2023-05-05T15:40:39.692Z,51.84
2023-05-05T15:41:39.699Z,53.27
2023-05-05T15:42:39.698Z,51.59
2023-05-05T15:43:39.675Z,52.49
2023-05-05T15:44:39.626Z,53.00
2023-05-05T15:45:39.669Z,54.52
2023-05-05T15:46:39.741Z,54.43
2023-05-05T15:47:39.677Z,54.12
2023-05-05T15:48:39.640Z,55.02
2023-05-05T15:49:39.611Z,57.43
2023-05-05T15:50:39.562Z,56.02
2023-05-05T15:51:39.600Z,55.52
2023-05-05T15:52:39.561Z,56.02
2023-05-05T15:53:39.608Z,56.35
2023-05-05T15:54:39.541Z,56.15
2023-05-05T15:55:39.543Z,54.75
2023-05-05T15:56:39.500Z,54.05
2023-05-05T15:57:39.519Z,54.95
2023-05-05T15:58:39.476Z,54.85
2023-05-05T15:59:39.507Z,54.85
2023-05-05T16:00:39.457Z,55.55
2023-05-05T16:01:39.594Z,54.35
2023-05-05T16:02:39.474Z,54.15
2023-05-05T16:03:39.468Z,55.35
2023-05-05T16:04:39.437Z,55.68
2023-05-05T16:05:39.468Z,56.38
2023-05-05T16:06:39.400Z,54.77
2023-05-05T16:07:39.415Z,55.58
2023-05-05T16:08:39.403Z,54.97
2023-05-05T16:09:39.399Z,55.88
2023-05-05T16:10:39.363Z,55.28
2023-05-05T16:11:39.390Z,56.18
2023-05-05T16:12:39.386Z,55.58
2023-05-05T16:13:39.369Z,55.58
2023-05-05T16:14:39.318Z,55.88
2023-05-05T16:15:39.340Z,55.78
2023-05-05T16:16:39.364Z,56.08
2023-05-05T16:17:39.360Z,55.80
2023-05-05T16:18:39.275Z,55.91
2023-05-05T16:19:39.287Z,56.61
2023-05-05T16:20:39.260Z,56.10
2023-05-05T16:21:39.256Z,56.10
2023-05-05T16:22:39.244Z,56.51
2023-05-05T16:23:39.238Z,56.10
2023-05-05T16:24:39.421Z,56.21
2023-05-05T16:25:39.193Z,56.21
2023-05-05T16:26:39.209Z,56.41
2023-05-05T16:27:39.184Z,56.10
2023-05-05T16:28:39.248Z,56.21
2023-05-05T16:29:39.146Z,56.10
2023-05-05T16:30:39.180Z,56.30
2023-05-05T16:31:39.180Z,56.21
2023-05-05T16:32:39.207Z,56.71
2023-05-05T16:33:39.149Z,56.51
2023-05-05T16:34:39.136Z,56.71
2023-05-05T16:35:39.094Z,56.61
2023-05-05T16:36:39.104Z,57.11
2023-05-05T16:37:39.099Z,57.11
2023-05-05T16:38:39.086Z,57.41
2023-05-05T16:39:39.090Z,57.51
2023-05-05T16:40:39.292Z,57.61
2023-05-05T16:41:39.229Z,57.61
2023-05-05T16:42:39.018Z,57.61
2023-05-05T16:43:39.022Z,57.81
2023-05-05T16:44:39.016Z,57.94
2023-05-05T16:45:39.022Z,58.22
2023-05-05T16:46:39.088Z,57.91
2023-05-05T16:47:39.085Z,57.81
2023-05-05T16:48:38.978Z,57.91
2023-05-05T16:49:38.973Z,58.22
2023-05-05T16:50:39.013Z,58.31
2023-05-05T16:51:38.978Z,58.11
2023-05-05T16:52:38.944Z,58.22
2023-05-05T16:53:38.941Z,58.22
2023-05-05T16:54:38.913Z,58.22
2023-05-05T16:55:38.961Z,58.22
2023-05-05T16:56:38.896Z,58.72
2023-05-05T16:57:38.966Z,58.92
2023-05-05T16:58:38.871Z,60.32
2023-05-05T16:59:38.840Z,59.92
2023-05-05T17:00:38.836Z,61.43
2023-05-05T17:01:38.853Z,60.62
2023-05-05T17:02:38.871Z,60.62
2023-05-05T17:03:38.836Z,60.52
2023-05-05T17:04:38.788Z,59.32
2023-05-05T17:05:38.797Z,62.23
2023-05-05T17:06:38.785Z,62.63
2023-05-05T17:07:38.767Z,61.22
2023-05-05T17:08:38.777Z,61.13
2023-05-05T17:09:38.780Z,62.13
2023-05-05T17:10:38.737Z,62.53
2023-05-05T17:11:38.704Z,61.93
2023-05-05T17:12:38.735Z,62.53
2023-05-05T17:13:38.716Z,61.83
2023-05-05T17:14:38.682Z,63.03
2023-05-05T17:15:38.685Z,62.23
2023-05-05T17:16:38.886Z,62.23
2023-05-05T17:17:39.715Z,62.03
2023-05-05T17:18:38.648Z,61.63
2023-05-05T17:19:38.617Z,61.33
2023-05-05T17:20:38.663Z,60.96
2023-05-05T17:21:38.630Z,60.96
2023-05-05T17:22:38.664Z,61.35
2023-05-05T17:23:38.605Z,61.05
2023-05-05T17:24:38.579Z,61.46